sensor_id;sensor_type;location;lat;lon;timestamp;temperature;humidity
20866;DHT22;10593;48.398;10.698;2023-02-10T00:01:29;1.10;48.50
20866;DHT22;10593;48.398;10.698;2023-02-10T00:03:55;1.10;48.50
20866;DHT22;10593;48.398;10.698;2023-02-10T00:06:23;1.00;48.40
20866;DHT22;10593;48.398;10.698;2023-02-10T00:08:52;1.00;48.40
20866;DHT22;10593;48.398;10.698;2023-02-10T00:11:19;1.00;48.40
20866;DHT22;10593;48.398;10.698;2023-02-10T00:14:05;1.00;48.40
20866;DHT22;10593;48.398;10.698;2023-02-10T00:16:30;1.00;48.40
20866;DHT22;10593;48.398;10.698;2023-02-10T00:18:56;1.00;48.40
20866;DHT22;10593;48.398;10.698;2023-02-10T00:21:22;0.90;48.30
20866;DHT22;10593;48.398;10.698;2023-02-10T00:23:47;0.90;48.30
20866;DHT22;10593;48.398;10.698;2023-02-10T00:26:13;0.90;48.30
20866;DHT22;10593;48.398;10.698;2023-02-10T00:28:39;0.90;48.30
20866;DHT22;10593;48.398;10.698;2023-02-10T00:31:06;0.90;48.30
20866;DHT22;10593;48.398;10.698;2023-02-10T00:33:33;0.90;48.30
20866;DHT22;10593;48.398;10.698;2023-02-10T00:36:02;0.90;48.30
20866;DHT22;10593;48.398;10.698;2023-02-10T00:38:28;0.90;48.30
20866;DHT22;10593;48.398;10.698;2023-02-10T00:40:54;0.90;48.30
20866;DHT22;10593;48.398;10.698;2023-02-10T00:43:20;0.90;48.30
20866;DHT22;10593;48.398;10.698;2023-02-10T00:45:45;0.80;48.20
20866;DHT22;10593;48.398;10.698;2023-02-10T00:48:11;0.80;48.20
20866;DHT22;10593;48.398;10.698;2023-02-10T00:50:36;0.80;48.20
20866;DHT22;10593;48.398;10.698;2023-02-10T00:53:02;0.80;48.20
20866;DHT22;10593;48.398;10.698;2023-02-10T00:55:28;0.80;48.30
20866;DHT22;10593;48.398;10.698;2023-02-10T00:57:53;0.80;48.20
20866;DHT22;10593;48.398;10.698;2023-02-10T01:00:19;0.80;48.20
20866;DHT22;10593;48.398;10.698;2023-02-10T01:02:45;0.80;48.20
20866;DHT22;10593;48.398;10.698;2023-02-10T01:05:10;0.80;48.20
20866;DHT22;10593;48.398;10.698;2023-02-10T01:07:36;0.80;48.20
20866;DHT22;10593;48.398;10.698;2023-02-10T01:10:01;0.70;48.10
20866;DHT22;10593;48.398;10.698;2023-02-10T01:12:28;0.70;48.10
20866;DHT22;10593;48.398;10.698;2023-02-10T01:14:53;0.70;48.10
20866;DHT22;10593;48.398;10.698;2023-02-10T01:17:19;0.70;48.10
20866;DHT22;10593;48.398;10.698;2023-02-10T01:19:45;0.70;48.10
20866;DHT22;10593;48.398;10.698;2023-02-10T01:22:13;0.70;48.10
20866;DHT22;10593;48.398;10.698;2023-02-10T01:24:38;0.70;48.10
20866;DHT22;10593;48.398;10.698;2023-02-10T01:27:04;0.70;48.10
20866;DHT22;10593;48.398;10.698;2023-02-10T01:29:29;0.60;48.00
20866;DHT22;10593;48.398;10.698;2023-02-10T01:31:55;0.60;48.00
20866;DHT22;10593;48.398;10.698;2023-02-10T01:34:21;0.60;48.00
20866;DHT22;10593;48.398;10.698;2023-02-10T01:36:46;0.60;48.00
20866;DHT22;10593;48.398;10.698;2023-02-10T01:39:12;0.60;47.90
20866;DHT22;10593;48.398;10.698;2023-02-10T01:41:37;0.60;47.90
20866;DHT22;10593;48.398;10.698;2023-02-10T01:46:44;0.50;47.90
20866;DHT22;10593;48.398;10.698;2023-02-10T01:49:15;0.60;48.00
20866;DHT22;10593;48.398;10.698;2023-02-10T01:51:53;0.50;47.90
20866;DHT22;10593;48.398;10.698;2023-02-10T01:54:25;0.50;47.80
20866;DHT22;10593;48.398;10.698;2023-02-10T01:56:54;0.50;47.90
20866;DHT22;10593;48.398;10.698;2023-02-10T01:59:21;0.50;47.80
20866;DHT22;10593;48.398;10.698;2023-02-10T02:01:50;0.50;47.80
20866;DHT22;10593;48.398;10.698;2023-02-10T02:04:16;0.50;47.80
20866;DHT22;10593;48.398;10.698;2023-02-10T02:06:42;0.50;47.80
20866;DHT22;10593;48.398;10.698;2023-02-10T02:09:08;0.50;47.70
20866;DHT22;10593;48.398;10.698;2023-02-10T02:11:56;0.50;47.70
20866;DHT22;10593;48.398;10.698;2023-02-10T02:14:50;0.40;47.60
20866;DHT22;10593;48.398;10.698;2023-02-10T02:17:37;0.40;47.60
20866;DHT22;10593;48.398;10.698;2023-02-10T02:23:22;0.40;47.50
20866;DHT22;10593;48.398;10.698;2023-02-10T02:26:13;0.40;47.40
20866;DHT22;10593;48.398;10.698;2023-02-10T02:29:49;0.30;47.30
20866;DHT22;10593;48.398;10.698;2023-02-10T02:32:43;0.30;47.30
20866;DHT22;10593;48.398;10.698;2023-02-10T02:35:21;0.30;47.30
20866;DHT22;10593;48.398;10.698;2023-02-10T02:37:51;0.30;47.90
20866;DHT22;10593;48.398;10.698;2023-02-10T02:40:18;0.30;47.40
20866;DHT22;10593;48.398;10.698;2023-02-10T02:42:45;0.30;47.40
20866;DHT22;10593;48.398;10.698;2023-02-10T02:45:14;0.30;47.40
20866;DHT22;10593;48.398;10.698;2023-02-10T02:50:37;0.20;47.30
20866;DHT22;10593;48.398;10.698;2023-02-10T02:56:35;0.20;47.30
20866;DHT22;10593;48.398;10.698;2023-02-10T02:59:34;0.20;47.20
20866;DHT22;10593;48.398;10.698;2023-02-10T03:02:12;0.20;47.20
20866;DHT22;10593;48.398;10.698;2023-02-10T03:04:40;0.20;47.20
20866;DHT22;10593;48.398;10.698;2023-02-10T03:07:07;0.20;47.20
20866;DHT22;10593;48.398;10.698;2023-02-10T03:09:33;0.20;47.20
20866;DHT22;10593;48.398;10.698;2023-02-10T03:11:59;0.10;47.20
20866;DHT22;10593;48.398;10.698;2023-02-10T03:14:25;0.10;47.20
20866;DHT22;10593;48.398;10.698;2023-02-10T03:16:51;0.10;47.20
20866;DHT22;10593;48.398;10.698;2023-02-10T03:19:17;0.10;47.20
20866;DHT22;10593;48.398;10.698;2023-02-10T03:21:43;0.10;47.20
20866;DHT22;10593;48.398;10.698;2023-02-10T03:24:09;0.10;47.20
20866;DHT22;10593;48.398;10.698;2023-02-10T03:26:36;0.10;47.20
20866;DHT22;10593;48.398;10.698;2023-02-10T03:29:03;0.10;47.20
20866;DHT22;10593;48.398;10.698;2023-02-10T03:31:29;0.10;47.20
20866;DHT22;10593;48.398;10.698;2023-02-10T03:33:55;0.10;47.30
20866;DHT22;10593;48.398;10.698;2023-02-10T03:36:20;0.10;47.40
20866;DHT22;10593;48.398;10.698;2023-02-10T03:38:46;0.10;47.40
20866;DHT22;10593;48.398;10.698;2023-02-10T03:41:12;0.10;47.50
20866;DHT22;10593;48.398;10.698;2023-02-10T03:43:39;0.10;47.50
20866;DHT22;10593;48.398;10.698;2023-02-10T03:46:07;0.10;47.50
20866;DHT22;10593;48.398;10.698;2023-02-10T03:48:33;0.10;47.60
20866;DHT22;10593;48.398;10.698;2023-02-10T03:51:01;0.10;47.60
20866;DHT22;10593;48.398;10.698;2023-02-10T03:53:29;0.10;47.60
20866;DHT22;10593;48.398;10.698;2023-02-10T03:55:56;0.10;47.70
20866;DHT22;10593;48.398;10.698;2023-02-10T03:58:22;0.10;47.60
20866;DHT22;10593;48.398;10.698;2023-02-10T04:00:48;0.10;47.50
20866;DHT22;10593;48.398;10.698;2023-02-10T04:03:14;0.10;47.40
20866;DHT22;10593;48.398;10.698;2023-02-10T04:05:40;0.10;47.90
20866;DHT22;10593;48.398;10.698;2023-02-10T04:08:07;0.00;47.20
20866;DHT22;10593;48.398;10.698;2023-02-10T04:10:34;0.10;47.20
20866;DHT22;10593;48.398;10.698;2023-02-10T04:13:00;0.00;47.10
20866;DHT22;10593;48.398;10.698;2023-02-10T04:15:25;0.00;47.10
20866;DHT22;10593;48.398;10.698;2023-02-10T04:17:51;0.00;47.00
20866;DHT22;10593;48.398;10.698;2023-02-10T04:20:17;0.00;46.90
20866;DHT22;10593;48.398;10.698;2023-02-10T04:22:43;0.00;46.90
20866;DHT22;10593;48.398;10.698;2023-02-10T04:25:09;0.00;46.90
20866;DHT22;10593;48.398;10.698;2023-02-10T04:27:35;0.00;46.80
20866;DHT22;10593;48.398;10.698;2023-02-10T04:30:01;-0.10;46.80
20866;DHT22;10593;48.398;10.698;2023-02-10T04:32:26;-0.10;46.80
20866;DHT22;10593;48.398;10.698;2023-02-10T04:34:52;-0.10;46.80
20866;DHT22;10593;48.398;10.698;2023-02-10T04:37:18;-0.10;46.80
20866;DHT22;10593;48.398;10.698;2023-02-10T04:39:44;-0.10;46.80
20866;DHT22;10593;48.398;10.698;2023-02-10T04:42:09;-0.10;46.80
20866;DHT22;10593;48.398;10.698;2023-02-10T04:44:35;-0.20;46.70
20866;DHT22;10593;48.398;10.698;2023-02-10T04:47:01;-0.20;46.70
20866;DHT22;10593;48.398;10.698;2023-02-10T04:49:27;-0.10;46.80
20866;DHT22;10593;48.398;10.698;2023-02-10T04:51:53;-0.20;46.70
20866;DHT22;10593;48.398;10.698;2023-02-10T04:54:20;-0.20;46.70
20866;DHT22;10593;48.398;10.698;2023-02-10T04:56:46;-0.20;46.70
20866;DHT22;10593;48.398;10.698;2023-02-10T04:59:12;-0.20;46.70
20866;DHT22;10593;48.398;10.698;2023-02-10T05:01:38;-0.20;46.60
20866;DHT22;10593;48.398;10.698;2023-02-10T05:04:03;-0.20;46.70
20866;DHT22;10593;48.398;10.698;2023-02-10T05:06:29;-0.20;46.60
20866;DHT22;10593;48.398;10.698;2023-02-10T05:08:55;-0.20;46.60
20866;DHT22;10593;48.398;10.698;2023-02-10T05:11:21;-0.20;46.60
20866;DHT22;10593;48.398;10.698;2023-02-10T05:13:46;-0.30;46.50
20866;DHT22;10593;48.398;10.698;2023-02-10T05:16:13;-0.30;46.50
20866;DHT22;10593;48.398;10.698;2023-02-10T05:18:40;-0.30;46.50
20866;DHT22;10593;48.398;10.698;2023-02-10T05:21:06;-0.30;46.50
20866;DHT22;10593;48.398;10.698;2023-02-10T05:23:35;-0.30;46.50
20866;DHT22;10593;48.398;10.698;2023-02-10T05:26:01;-0.30;46.40
20866;DHT22;10593;48.398;10.698;2023-02-10T05:28:27;-0.40;46.40
20866;DHT22;10593;48.398;10.698;2023-02-10T05:30:53;-0.30;46.40
20866;DHT22;10593;48.398;10.698;2023-02-10T05:33:19;-0.30;46.40
20866;DHT22;10593;48.398;10.698;2023-02-10T05:35:45;-0.40;46.30
20866;DHT22;10593;48.398;10.698;2023-02-10T05:38:10;-0.40;46.30
20866;DHT22;10593;48.398;10.698;2023-02-10T05:40:36;-0.40;46.40
20866;DHT22;10593;48.398;10.698;2023-02-10T05:43:03;-0.40;46.40
20866;DHT22;10593;48.398;10.698;2023-02-10T05:45:28;-0.40;46.40
20866;DHT22;10593;48.398;10.698;2023-02-10T05:47:54;-0.40;46.40
20866;DHT22;10593;48.398;10.698;2023-02-10T05:50:20;-0.40;46.40
20866;DHT22;10593;48.398;10.698;2023-02-10T05:52:46;-0.40;46.40
20866;DHT22;10593;48.398;10.698;2023-02-10T05:55:11;-0.40;46.40
20866;DHT22;10593;48.398;10.698;2023-02-10T05:57:37;-0.50;46.40
20866;DHT22;10593;48.398;10.698;2023-02-10T06:00:04;-0.50;46.30
20866;DHT22;10593;48.398;10.698;2023-02-10T06:02:30;-0.50;46.30
20866;DHT22;10593;48.398;10.698;2023-02-10T06:04:56;-0.50;46.30
20866;DHT22;10593;48.398;10.698;2023-02-10T06:07:22;-0.50;46.30
20866;DHT22;10593;48.398;10.698;2023-02-10T06:09:47;-0.50;46.30
20866;DHT22;10593;48.398;10.698;2023-02-10T06:12:13;-0.50;46.20
20866;DHT22;10593;48.398;10.698;2023-02-10T06:14:39;-0.50;46.30
20866;DHT22;10593;48.398;10.698;2023-02-10T06:17:05;-0.50;46.20
20866;DHT22;10593;48.398;10.698;2023-02-10T06:19:36;-0.50;46.30
20866;DHT22;10593;48.398;10.698;2023-02-10T06:22:02;-0.50;46.20
20866;DHT22;10593;48.398;10.698;2023-02-10T06:24:28;-0.50;46.20
20866;DHT22;10593;48.398;10.698;2023-02-10T06:26:54;-0.60;46.20
20866;DHT22;10593;48.398;10.698;2023-02-10T06:29:20;-0.60;46.20
20866;DHT22;10593;48.398;10.698;2023-02-10T06:31:46;-0.60;46.20
20866;DHT22;10593;48.398;10.698;2023-02-10T06:34:11;-0.60;46.20
20866;DHT22;10593;48.398;10.698;2023-02-10T06:36:37;-0.60;46.20
20866;DHT22;10593;48.398;10.698;2023-02-10T06:39:03;-0.60;46.20
20866;DHT22;10593;48.398;10.698;2023-02-10T06:41:29;-0.60;46.20
20866;DHT22;10593;48.398;10.698;2023-02-10T06:43:55;-0.60;46.60
20866;DHT22;10593;48.398;10.698;2023-02-10T06:46:21;-0.60;46.20
20866;DHT22;10593;48.398;10.698;2023-02-10T06:48:46;-0.60;46.20
20866;DHT22;10593;48.398;10.698;2023-02-10T06:51:12;-0.60;46.20
20866;DHT22;10593;48.398;10.698;2023-02-10T06:53:39;-0.60;46.20
20866;DHT22;10593;48.398;10.698;2023-02-10T06:56:04;-0.60;46.20
20866;DHT22;10593;48.398;10.698;2023-02-10T06:58:30;-0.60;46.20
20866;DHT22;10593;48.398;10.698;2023-02-10T07:00:56;-0.60;46.20
20866;DHT22;10593;48.398;10.698;2023-02-10T07:03:24;-0.70;46.10
20866;DHT22;10593;48.398;10.698;2023-02-10T07:05:50;-0.70;46.20
20866;DHT22;10593;48.398;10.698;2023-02-10T07:08:16;-0.70;46.20
20866;DHT22;10593;48.398;10.698;2023-02-10T07:10:42;-0.70;46.20
20866;DHT22;10593;48.398;10.698;2023-02-10T07:13:07;-0.70;46.20
20866;DHT22;10593;48.398;10.698;2023-02-10T07:15:33;-0.70;46.30
20866;DHT22;10593;48.398;10.698;2023-02-10T07:17:59;-0.70;46.30
20866;DHT22;10593;48.398;10.698;2023-02-10T07:20:25;-0.70;46.30
20866;DHT22;10593;48.398;10.698;2023-02-10T07:22:51;-0.70;46.30
20866;DHT22;10593;48.398;10.698;2023-02-10T07:25:18;-0.70;46.40
20866;DHT22;10593;48.398;10.698;2023-02-10T07:27:44;-0.70;46.40
20866;DHT22;10593;48.398;10.698;2023-02-10T07:30:11;-0.60;46.60
20866;DHT22;10593;48.398;10.698;2023-02-10T07:32:37;-0.60;46.70
20866;DHT22;10593;48.398;10.698;2023-02-10T07:35:03;-0.60;46.80
20866;DHT22;10593;48.398;10.698;2023-02-10T07:37:29;-0.60;46.90
20866;DHT22;10593;48.398;10.698;2023-02-10T07:39:57;-0.60;47.00
20866;DHT22;10593;48.398;10.698;2023-02-10T07:42:22;-0.60;47.10
20866;DHT22;10593;48.398;10.698;2023-02-10T07:44:48;-0.60;47.10
20866;DHT22;10593;48.398;10.698;2023-02-10T07:47:14;-0.60;47.20
20866;DHT22;10593;48.398;10.698;2023-02-10T07:49:39;-0.60;47.10
20866;DHT22;10593;48.398;10.698;2023-02-10T07:52:05;-0.50;47.20
20866;DHT22;10593;48.398;10.698;2023-02-10T07:54:31;-0.50;47.30
20866;DHT22;10593;48.398;10.698;2023-02-10T07:56:57;-0.50;47.60
20866;DHT22;10593;48.398;10.698;2023-02-10T07:59:22;-0.50;47.70
20866;DHT22;10593;48.398;10.698;2023-02-10T08:01:48;-0.50;47.80
20866;DHT22;10593;48.398;10.698;2023-02-10T08:04:14;-0.50;48.00
20866;DHT22;10593;48.398;10.698;2023-02-10T08:06:40;-0.40;48.30
20866;DHT22;10593;48.398;10.698;2023-02-10T08:09:06;-0.40;48.70
20866;DHT22;10593;48.398;10.698;2023-02-10T08:11:32;-0.30;49.10
20866;DHT22;10593;48.398;10.698;2023-02-10T08:13:58;-0.30;49.30
20866;DHT22;10593;48.398;10.698;2023-02-10T08:16:23;-0.30;49.50
20866;DHT22;10593;48.398;10.698;2023-02-10T08:18:49;-0.30;49.60
20866;DHT22;10593;48.398;10.698;2023-02-10T08:21:15;-0.20;49.80
20866;DHT22;10593;48.398;10.698;2023-02-10T08:23:40;-0.20;49.90
20866;DHT22;10593;48.398;10.698;2023-02-10T08:26:08;-0.20;50.00
20866;DHT22;10593;48.398;10.698;2023-02-10T08:28:37;-0.10;50.20
20866;DHT22;10593;48.398;10.698;2023-02-10T08:31:05;-0.10;50.20
20866;DHT22;10593;48.398;10.698;2023-02-10T08:33:36;-0.10;50.30
20866;DHT22;10593;48.398;10.698;2023-02-10T08:36:05;0.00;50.40
20866;DHT22;10593;48.398;10.698;2023-02-10T08:38:37;0.00;50.30
20866;DHT22;10593;48.398;10.698;2023-02-10T08:41:03;0.10;50.60
20866;DHT22;10593;48.398;10.698;2023-02-10T08:43:29;0.10;50.70
20866;DHT22;10593;48.398;10.698;2023-02-10T08:45:56;0.10;50.70
20866;DHT22;10593;48.398;10.698;2023-02-10T08:48:23;0.10;50.70
20866;DHT22;10593;48.398;10.698;2023-02-10T08:50:49;0.20;50.70
20866;DHT22;10593;48.398;10.698;2023-02-10T08:53:15;0.20;50.70
20866;DHT22;10593;48.398;10.698;2023-02-10T08:55:41;0.20;50.80
20866;DHT22;10593;48.398;10.698;2023-02-10T08:58:06;0.20;50.90
20866;DHT22;10593;48.398;10.698;2023-02-10T09:00:32;0.30;51.10
20866;DHT22;10593;48.398;10.698;2023-02-10T09:02:59;0.30;51.10
20866;DHT22;10593;48.398;10.698;2023-02-10T09:05:25;0.30;51.10
20866;DHT22;10593;48.398;10.698;2023-02-10T09:07:51;0.40;51.20
20866;DHT22;10593;48.398;10.698;2023-02-10T09:10:16;0.40;51.20
20866;DHT22;10593;48.398;10.698;2023-02-10T09:12:42;0.40;51.20
20866;DHT22;10593;48.398;10.698;2023-02-10T09:15:09;0.40;51.40
20866;DHT22;10593;48.398;10.698;2023-02-10T09:17:35;0.50;51.50
20866;DHT22;10593;48.398;10.698;2023-02-10T09:20:01;0.50;51.50
20866;DHT22;10593;48.398;10.698;2023-02-10T09:22:26;0.50;51.60
20866;DHT22;10593;48.398;10.698;2023-02-10T09:24:52;0.50;51.80
20866;DHT22;10593;48.398;10.698;2023-02-10T09:27:19;0.60;52.00
20866;DHT22;10593;48.398;10.698;2023-02-10T09:29:45;0.60;52.00
20866;DHT22;10593;48.398;10.698;2023-02-10T09:32:11;0.70;52.10
20866;DHT22;10593;48.398;10.698;2023-02-10T09:34:37;0.70;52.10
20866;DHT22;10593;48.398;10.698;2023-02-10T09:37:05;0.70;52.20
20866;DHT22;10593;48.398;10.698;2023-02-10T09:39:31;0.80;52.30
20866;DHT22;10593;48.398;10.698;2023-02-10T09:42:07;0.80;52.30
20866;DHT22;10593;48.398;10.698;2023-02-10T09:44:53;0.80;52.60
20866;DHT22;10593;48.398;10.698;2023-02-10T09:50:34;0.90;52.70
20866;DHT22;10593;48.398;10.698;2023-02-10T09:53:18;0.90;52.60
20866;DHT22;10593;48.398;10.698;2023-02-10T09:55:59;1.00;52.50
20866;DHT22;10593;48.398;10.698;2023-02-10T09:58:42;1.00;52.50
20866;DHT22;10593;48.398;10.698;2023-02-10T10:01:24;1.00;52.60
20866;DHT22;10593;48.398;10.698;2023-02-10T10:04:26;1.10;52.70
20866;DHT22;10593;48.398;10.698;2023-02-10T10:06:50;1.10;52.70
20866;DHT22;10593;48.398;10.698;2023-02-10T10:09:35;1.10;52.70
20866;DHT22;10593;48.398;10.698;2023-02-10T10:12:09;1.20;52.90
20866;DHT22;10593;48.398;10.698;2023-02-10T10:14:41;1.20;52.90
20866;DHT22;10593;48.398;10.698;2023-02-10T10:23:41;1.30;53.40
20866;DHT22;10593;48.398;10.698;2023-02-10T10:26:38;1.30;53.50
20866;DHT22;10593;48.398;10.698;2023-02-10T10:29:43;1.30;53.20
20866;DHT22;10593;48.398;10.698;2023-02-10T10:32:28;1.40;53.40
20866;DHT22;10593;48.398;10.698;2023-02-10T10:35:11;1.40;53.40
20866;DHT22;10593;48.398;10.698;2023-02-10T10:37:41;1.40;53.50
20866;DHT22;10593;48.398;10.698;2023-02-10T10:40:13;1.50;53.50
20866;DHT22;10593;48.398;10.698;2023-02-10T10:42:45;1.50;53.60
20866;DHT22;10593;48.398;10.698;2023-02-10T10:45:14;1.50;53.70
20866;DHT22;10593;48.398;10.698;2023-02-10T10:48:12;1.50;53.70
20866;DHT22;10593;48.398;10.698;2023-02-10T10:50:42;1.60;54.00
20866;DHT22;10593;48.398;10.698;2023-02-10T10:53:16;1.60;53.80
20866;DHT22;10593;48.398;10.698;2023-02-10T10:55:50;1.60;54.00
20866;DHT22;10593;48.398;10.698;2023-02-10T10:58:30;1.70;53.90
20866;DHT22;10593;48.398;10.698;2023-02-10T11:01:02;1.70;54.00
20866;DHT22;10593;48.398;10.698;2023-02-10T11:03:29;1.80;53.90
20866;DHT22;10593;48.398;10.698;2023-02-10T11:06:16;1.80;54.00
20866;DHT22;10593;48.398;10.698;2023-02-10T11:08:55;1.80;54.00
20866;DHT22;10593;48.398;10.698;2023-02-10T11:11:38;1.80;54.00
20866;DHT22;10593;48.398;10.698;2023-02-10T11:14:17;1.90;54.10
20866;DHT22;10593;48.398;10.698;2023-02-10T11:16:53;1.90;54.10
20866;DHT22;10593;48.398;10.698;2023-02-10T11:19:25;2.00;54.00
20866;DHT22;10593;48.398;10.698;2023-02-10T11:21:52;2.00;53.80
20866;DHT22;10593;48.398;10.698;2023-02-10T11:24:23;2.10;53.70
20866;DHT22;10593;48.398;10.698;2023-02-10T11:27:06;2.10;53.80
20866;DHT22;10593;48.398;10.698;2023-02-10T11:29:52;2.10;53.60
20866;DHT22;10593;48.398;10.698;2023-02-10T11:32:40;2.20;53.70
20866;DHT22;10593;48.398;10.698;2023-02-10T11:35:14;2.20;53.70
20866;DHT22;10593;48.398;10.698;2023-02-10T11:37:41;2.20;53.70
20866;DHT22;10593;48.398;10.698;2023-02-10T11:40:20;2.20;53.70
20866;DHT22;10593;48.398;10.698;2023-02-10T11:42:55;2.30;53.80
20866;DHT22;10593;48.398;10.698;2023-02-10T11:45:30;2.30;53.70
20866;DHT22;10593;48.398;10.698;2023-02-10T11:50:31;2.40;53.60
20866;DHT22;10593;48.398;10.698;2023-02-10T11:52:59;2.40;53.60
20866;DHT22;10593;48.398;10.698;2023-02-10T11:55:34;2.40;53.50
20866;DHT22;10593;48.398;10.698;2023-02-10T12:08:04;2.60;53.50
20866;DHT22;10593;48.398;10.698;2023-02-10T12:10:53;2.60;53.40
20866;DHT22;10593;48.398;10.698;2023-02-10T12:17:02;2.60;53.20
20866;DHT22;10593;48.398;10.698;2023-02-10T12:35:03;2.80;53.10
20866;DHT22;10593;48.398;10.698;2023-02-10T12:37:57;2.90;53.10
20866;DHT22;10593;48.398;10.698;2023-02-10T12:52:05;3.00;52.80
20866;DHT22;10593;48.398;10.698;2023-02-10T13:03:32;3.20;52.90
20866;DHT22;10593;48.398;10.698;2023-02-10T13:09:05;3.20;53.00
20866;DHT22;10593;48.398;10.698;2023-02-10T13:12:02;3.30;52.90
20866;DHT22;10593;48.398;10.698;2023-02-10T13:14:28;3.30;52.80
20866;DHT22;10593;48.398;10.698;2023-02-10T13:16:57;3.30;52.70
20866;DHT22;10593;48.398;10.698;2023-02-10T13:22:47;3.40;52.50
20866;DHT22;10593;48.398;10.698;2023-02-10T13:25:44;3.40;52.50
20866;DHT22;10593;48.398;10.698;2023-02-10T13:28:41;3.40;52.30
20866;DHT22;10593;48.398;10.698;2023-02-10T13:34:18;3.50;52.10
20866;DHT22;10593;48.398;10.698;2023-02-10T13:39:51;3.50;51.90
20866;DHT22;10593;48.398;10.698;2023-02-10T13:42:23;3.50;51.90
20866;DHT22;10593;48.398;10.698;2023-02-10T13:45:06;3.60;52.00
20866;DHT22;10593;48.398;10.698;2023-02-10T13:47:38;3.60;52.00
20866;DHT22;10593;48.398;10.698;2023-02-10T13:50:19;3.60;51.90
20866;DHT22;10593;48.398;10.698;2023-02-10T13:52:57;3.70;51.90
20866;DHT22;10593;48.398;10.698;2023-02-10T13:58:16;3.70;51.80
20866;DHT22;10593;48.398;10.698;2023-02-10T14:00:53;3.70;51.80
20866;DHT22;10593;48.398;10.698;2023-02-10T14:03:30;3.80;51.80
20866;DHT22;10593;48.398;10.698;2023-02-10T14:06:03;3.80;51.80
20866;DHT22;10593;48.398;10.698;2023-02-10T14:14:03;3.90;51.50
20866;DHT22;10593;48.398;10.698;2023-02-10T14:16:44;3.90;51.30
20866;DHT22;10593;48.398;10.698;2023-02-10T14:19:36;3.90;51.40
20866;DHT22;10593;48.398;10.698;2023-02-10T14:22:04;3.90;51.30
20866;DHT22;10593;48.398;10.698;2023-02-10T14:24:34;3.90;51.40
20866;DHT22;10593;48.398;10.698;2023-02-10T14:27:10;4.00;51.30
20866;DHT22;10593;48.398;10.698;2023-02-10T14:29:43;4.00;51.20
20866;DHT22;10593;48.398;10.698;2023-02-10T14:32:15;4.00;51.20
20866;DHT22;10593;48.398;10.698;2023-02-10T14:34:53;4.00;50.90
20866;DHT22;10593;48.398;10.698;2023-02-10T14:37:21;4.00;50.80
20866;DHT22;10593;48.398;10.698;2023-02-10T14:39:55;4.10;51.30
20866;DHT22;10593;48.398;10.698;2023-02-10T14:42:25;4.10;50.80
20866;DHT22;10593;48.398;10.698;2023-02-10T14:44:56;4.10;50.80
20866;DHT22;10593;48.398;10.698;2023-02-10T14:47:32;4.10;50.80
20866;DHT22;10593;48.398;10.698;2023-02-10T14:50:00;4.10;50.80
20866;DHT22;10593;48.398;10.698;2023-02-10T14:52:32;4.20;50.80
20866;DHT22;10593;48.398;10.698;2023-02-10T14:55:00;4.20;50.80
20866;DHT22;10593;48.398;10.698;2023-02-10T14:57:27;4.20;50.70
20866;DHT22;10593;48.398;10.698;2023-02-10T14:59:55;4.20;50.60
20866;DHT22;10593;48.398;10.698;2023-02-10T15:02:28;4.20;50.50
20866;DHT22;10593;48.398;10.698;2023-02-10T15:04:57;4.20;50.50
20866;DHT22;10593;48.398;10.698;2023-02-10T15:07:29;4.20;50.40
20866;DHT22;10593;48.398;10.698;2023-02-10T15:10:05;4.30;50.30
20866;DHT22;10593;48.398;10.698;2023-02-10T15:12:44;4.30;50.20
20866;DHT22;10593;48.398;10.698;2023-02-10T15:15:24;4.30;50.20
20866;DHT22;10593;48.398;10.698;2023-02-10T15:17:59;4.30;49.90
20866;DHT22;10593;48.398;10.698;2023-02-10T15:20:31;4.30;49.80
20866;DHT22;10593;48.398;10.698;2023-02-10T15:30:58;4.30;49.40
20866;DHT22;10593;48.398;10.698;2023-02-10T15:33:40;4.30;49.20
20866;DHT22;10593;48.398;10.698;2023-02-10T15:36:35;4.30;49.10
20866;DHT22;10593;48.398;10.698;2023-02-10T15:39:24;4.30;49.00
20866;DHT22;10593;48.398;10.698;2023-02-10T15:47:26;4.30;48.80
20866;DHT22;10593;48.398;10.698;2023-02-10T15:49:46;4.40;48.90
20866;DHT22;10593;48.398;10.698;2023-02-10T15:52:20;4.30;48.50
20866;DHT22;10593;48.398;10.698;2023-02-10T15:54:49;4.40;48.50
20866;DHT22;10593;48.398;10.698;2023-02-10T15:57:18;4.30;48.40
20866;DHT22;10593;48.398;10.698;2023-02-10T15:59:44;4.30;48.20
20866;DHT22;10593;48.398;10.698;2023-02-10T16:02:13;4.30;48.20
20866;DHT22;10593;48.398;10.698;2023-02-10T16:04:39;4.30;48.10
20866;DHT22;10593;48.398;10.698;2023-02-10T16:07:05;4.30;47.90
20866;DHT22;10593;48.398;10.698;2023-02-10T16:09:32;4.30;47.70
20866;DHT22;10593;48.398;10.698;2023-02-10T16:12:01;4.30;47.70
20866;DHT22;10593;48.398;10.698;2023-02-10T16:14:27;4.30;47.60
20866;DHT22;10593;48.398;10.698;2023-02-10T16:16:56;4.30;47.40
20866;DHT22;10593;48.398;10.698;2023-02-10T16:19:26;4.20;47.20
20866;DHT22;10593;48.398;10.698;2023-02-10T16:21:53;4.30;47.20
20866;DHT22;10593;48.398;10.698;2023-02-10T16:24:22;4.20;47.10
20866;DHT22;10593;48.398;10.698;2023-02-10T16:26:49;4.20;47.00
20866;DHT22;10593;48.398;10.698;2023-02-10T16:29:17;4.20;46.90
20866;DHT22;10593;48.398;10.698;2023-02-10T16:31:45;4.20;46.70
20866;DHT22;10593;48.398;10.698;2023-02-10T16:34:11;4.20;47.30
20866;DHT22;10593;48.398;10.698;2023-02-10T16:36:38;4.20;46.80
20866;DHT22;10593;48.398;10.698;2023-02-10T16:39:06;4.20;46.80
20866;DHT22;10593;48.398;10.698;2023-02-10T16:41:37;4.10;46.80
20866;DHT22;10593;48.398;10.698;2023-02-10T16:44:03;4.10;47.10
20866;DHT22;10593;48.398;10.698;2023-02-10T16:46:28;4.10;47.20
20866;DHT22;10593;48.398;10.698;2023-02-10T16:48:54;4.10;47.20
20866;DHT22;10593;48.398;10.698;2023-02-10T16:51:20;4.10;47.30
20866;DHT22;10593;48.398;10.698;2023-02-10T16:53:45;4.00;47.20
20866;DHT22;10593;48.398;10.698;2023-02-10T16:56:17;4.00;47.20
20866;DHT22;10593;48.398;10.698;2023-02-10T16:58:42;4.00;47.40
20866;DHT22;10593;48.398;10.698;2023-02-10T17:01:08;3.90;47.40
20866;DHT22;10593;48.398;10.698;2023-02-10T17:03:34;3.90;47.40
20866;DHT22;10593;48.398;10.698;2023-02-10T17:06:00;3.90;47.50
20866;DHT22;10593;48.398;10.698;2023-02-10T17:08:25;3.90;47.60
20866;DHT22;10593;48.398;10.698;2023-02-10T17:10:51;3.90;47.70
20866;DHT22;10593;48.398;10.698;2023-02-10T17:13:17;3.80;47.70
20866;DHT22;10593;48.398;10.698;2023-02-10T17:15:43;3.80;47.80
20866;DHT22;10593;48.398;10.698;2023-02-10T17:18:11;3.80;47.90
20866;DHT22;10593;48.398;10.698;2023-02-10T17:20:38;3.80;48.00
20866;DHT22;10593;48.398;10.698;2023-02-10T17:23:04;3.70;47.90
20866;DHT22;10593;48.398;10.698;2023-02-10T17:25:32;3.70;48.10
20866;DHT22;10593;48.398;10.698;2023-02-10T17:28:00;3.70;48.20
20866;DHT22;10593;48.398;10.698;2023-02-10T17:30:26;3.70;48.30
20866;DHT22;10593;48.398;10.698;2023-02-10T17:32:52;3.70;48.30